Time;durP1;ratioP1;P1;durP2;ratioP2;P2;SDS_P1;SDS_P2;PMS_P1;PMS_P2;Temp;Humidity;BMP_temperature;BMP_pressure;BME280_temperature;BME280_humidity;BME280_pressure;Samples;Min_cycle;Max_cycle;Signal;HPM_P1;HPM_P2
2023/03/12 00:00:33;;;;;;;;;;;-1.10;1.00;;;;;;5046692;28;20301;-54
2023/03/12 00:02:59;;;;;;;;;;;;;;;;;;5049122;28;19960;-51
2023/03/12 00:05:25;;;;;;;;;;;;;;;;;;5049516;28;19920;-51
2023/03/12 00:07:51;;;;;;;;;;;;;;;;;;5047190;28;20437;-53
2023/03/12 00:10:17;;;;;;;;;;;;;;;;;;5047836;28;19936;-52
2023/03/12 00:12:43;;;;;;;;;;;;;;;;;;5048071;28;19925;-54
2023/03/12 00:15:09;;;;;;;;;;;;;;;;;;5049235;28;20453;-52
2023/03/12 00:17:35;;;;;;;;;;;;;;;;;;5048862;28;19979;-53
2023/03/12 00:20:00;;;;;;;;;;;-1.10;1.00;;;;;;5048900;28;19920;-55
2023/03/12 00:22:26;;;;;;;;;;;;;;;;;;5047713;28;19936;-55
2023/03/12 00:24:52;;;;;;;;;;;;;;;;;;5047687;28;19928;-52
2023/03/12 00:27:18;;;;;;;;;;;-0.20;1.00;;;;;;5048011;28;19928;-54
2023/03/12 00:29:43;;;;;;;;;;;-0.60;1.00;;;;;;5047974;28;19925;-55
2023/03/12 00:32:11;;;;;;;;;;;;;;;;;;5048592;28;20294;-51
2023/03/12 00:34:37;;;;;;;;;;;;;;;;;;5047415;28;19956;-53
2023/03/12 00:37:03;;;;;;;;;;;;;;;;;;5048972;28;19929;-55
2023/03/12 00:39:29;;;;;;;;;;;;;;;;;;5048587;28;20448;-54
2023/03/12 00:41:54;;;;;;;;;;;-0.30;1.00;;;;;;5040363;28;19925;-51
2023/03/12 00:44:20;;;;;;;;;;;-0.10;1.00;;;;;;5040469;28;19921;-53
2023/03/12 00:46:46;;;;;;;;;;;;;;;;;;5032326;28;19925;-54
2023/03/12 00:49:12;;;;;;;;;;;;;;;;;;5041057;28;20611;-54
2023/03/12 00:51:37;;;;;;;;;;;-0.50;94.30;;;;;;5044654;28;19986;-53
2023/03/12 00:54:03;;;;;;;;;;;;;;;;;;5044390;28;19932;-52
2023/03/12 00:56:29;;;;;;;;;;;;;;;;;;5049055;28;19932;-54
2023/03/12 00:58:55;;;;;;;;;;;;;;;;;;5045115;28;19921;-54
2023/03/12 01:01:21;;;;;;;;;;;;;;;;;;5042704;28;20404;-54
2023/03/12 01:03:47;;;;;;;;;;;;;;;;;;5051589;28;19927;-54
2023/03/12 01:06:13;;;;;;;;;;;;;;;;;;5044347;28;20000;-54
2023/03/12 01:08:38;;;;;;;;;;;-0.30;99.90;;;;;;5049023;28;19979;-54
2023/03/12 01:11:04;;;;;;;;;;;;;;;;;;5039942;28;19947;-53
2023/03/12 01:13:30;;;;;;;;;;;;;;;;;;5048805;28;19924;-54
2023/03/12 01:15:55;;;;;;;;;;;0.10;99.90;;;;;;5051639;28;19928;-51
2023/03/12 01:18:21;;;;;;;;;;;;;;;;;;5049543;28;20054;-54
2023/03/12 01:20:47;;;;;;;;;;;-0.10;99.90;;;;;;5047222;28;19921;-54
2023/03/12 01:23:13;;;;;;;;;;;-0.10;99.20;;;;;;5048053;28;19921;-53
2023/03/12 01:25:39;;;;;;;;;;;;;;;;;;5041607;28;19928;-52
2023/03/12 01:28:05;;;;;;;;;;;;;;;;;;5051115;28;19928;-52
2023/03/12 01:30:31;;;;;;;;;;;;;;;;;;5051481;28;20289;-52
2023/03/12 01:32:56;;;;;;;;;;;;;;;;;;5050191;28;19920;-53
2023/03/12 01:35:22;;;;;;;;;;;;;;;;;;5050533;28;19932;-55
2023/03/12 01:37:48;;;;;;;;;;;;;;;;;;5051649;28;20013;-55
2023/03/12 01:40:15;;;;;;;;;;;0.70;1.00;;;;;;5050342;28;20024;-54
2023/03/12 01:42:41;;;;;;;;;;;;;;;;;;5050291;28;20147;-54
2023/03/12 01:45:07;;;;;;;;;;;;;;;;;;5052299;28;19927;-54
2023/03/12 01:47:32;;;;;;;;;;;;;;;;;;5051222;28;19927;-53
2023/03/12 01:49:58;;;;;;;;;;;;;;;;;;5050287;28;19921;-53
2023/03/12 01:52:24;;;;;;;;;;;;;;;;;;5051425;28;20031;-54
2023/03/12 01:54:50;;;;;;;;;;;;;;;;;;5050227;28;19925;-54
2023/03/12 01:57:16;;;;;;;;;;;;;;;;;;5051283;28;19921;-54
2023/03/12 01:59:42;;;;;;;;;;;;;;;;;;5050553;28;20340;-54
2023/03/12 02:02:08;;;;;;;;;;;;;;;;;;5050766;28;19925;-54
2023/03/12 02:04:34;;;;;;;;;;;;;;;;;;5049463;28;19970;-54
2023/03/12 02:07:00;;;;;;;;;;;;;;;;;;5051194;28;19924;-55
2023/03/12 02:09:25;;;;;;;;;;;1.00;99.90;;;;;;5050893;28;19921;-54
2023/03/12 02:11:51;;;;;;;;;;;;;;;;;;5050878;28;20019;-53
2023/03/12 02:14:17;;;;;;;;;;;0.10;99.90;;;;;;5051100;28;19921;-55
2023/03/12 02:16:43;;;;;;;;;;;;;;;;;;5050693;28;19978;-54
2023/03/12 02:19:09;;;;;;;;;;;;;;;;;;5051262;28;19925;-55
2023/03/12 02:21:36;;;;;;;;;;;0.90;99.90;;;;;;5050637;28;20379;-53
2023/03/12 02:24:01;;;;;;;;;;;;;;;;;;5048918;28;19928;-53
2023/03/12 02:26:27;;;;;;;;;;;;;;;;;;5050556;28;20321;-54
2023/03/12 02:28:54;;;;;;;;;;;;;;;;;;5048923;28;19929;-52
2023/03/12 02:31:19;;;;;;;;;;;;;;;;;;5051082;28;19975;-54
2023/03/12 02:33:45;;;;;;;;;;;;;;;;;;5049029;28;20595;-54
2023/03/12 02:36:11;;;;;;;;;;;;;;;;;;5044145;28;19925;-53
2023/03/12 02:38:37;;;;;;;;;;;;;;;;;;5046232;28;19925;-54
2023/03/12 02:41:14;;;;;;;;;;;0.90;99.90;;;;;;5043032;28;20429;-53
2023/03/12 02:43:40;;;;;;;;;;;;;;;;;;5048177;28;19991;-53
2023/03/12 02:46:06;;;;;;;;;;;;;;;;;;5039583;28;20453;-55
2023/03/12 02:48:32;;;;;;;;;;;;;;;;;;5048996;28;20067;-54
2023/03/12 02:50:58;;;;;;;;;;;;;;;;;;5038341;28;19990;-52
2023/03/12 02:53:24;;;;;;;;;;;;;;;;;;5050766;28;19921;-54
2023/03/12 02:55:50;;;;;;;;;;;;;;;;;;5048895;28;19933;-53
2023/03/12 02:58:16;;;;;;;;;;;;;;;;;;5048418;28;20004;-54
2023/03/12 03:00:41;;;;;;;;;;;1.00;99.90;;;;;;5048827;28;19921;-52
2023/03/12 03:03:07;;;;;;;;;;;;;;;;;;5040378;28;19920;-55
2023/03/12 03:05:36;;;;;;;;;;;;;;;;;;5050016;28;19921;-54
2023/03/12 03:08:01;;;;;;;;;;;;;;;;;;5045357;28;20592;-54
2023/03/12 03:10:27;;;;;;;;;;;;;;;;;;5041990;28;19964;-55
2023/03/12 03:12:53;;;;;;;;;;;0.90;99.90;;;;;;5046149;28;20012;-52
2023/03/12 03:15:18;;;;;;;;;;;1.30;99.90;;;;;;5049116;28;19929;-54
2023/03/12 03:17:44;;;;;;;;;;;;;;;;;;5048581;28;19921;-53
2023/03/12 03:20:10;;;;;;;;;;;;;;;;;;5047057;28;19920;-52
2023/03/12 03:22:36;;;;;;;;;;;;;;;;;;5048066;28;19928;-54
2023/03/12 03:25:03;;;;;;;;;;;;;;;;;;5040048;28;19921;-54
2023/03/12 03:27:29;;;;;;;;;;;;;;;;;;5042490;28;20322;-54
2023/03/12 03:29:55;;;;;;;;;;;;;;;;;;5043145;28;19928;-53
2023/03/12 03:32:20;;;;;;;;;;;1.20;99.90;;;;;;5050142;28;19928;-55
2023/03/12 03:34:46;;;;;;;;;;;1.40;99.90;;;;;;5046488;28;19921;-54
2023/03/12 03:37:11;;;;;;;;;;;;;;;;;;5040806;28;20341;-53
2023/03/12 03:39:37;;;;;;;;;;;;;;;;;;5042120;28;20409;-51
2023/03/12 03:42:03;;;;;;;;;;;0.90;99.90;;;;;;5039458;28;20077;-54
2023/03/12 03:44:29;;;;;;;;;;;;;;;;;;5042051;28;20008;-52
2023/03/12 03:46:55;;;;;;;;;;;;;;;;;;5046794;28;19928;-54
2023/03/12 03:49:21;;;;;;;;;;;0.60;99.90;;;;;;5049615;28;19928;-52
2023/03/12 03:51:46;;;;;;;;;;;1.10;99.90;;;;;;5044623;28;20555;-54
2023/03/12 03:54:12;;;;;;;;;;;;;;;;;;5036414;28;20016;-51
2023/03/12 03:56:38;;;;;;;;;;;;;;;;;;5047889;28;20307;-53
2023/03/12 03:59:04;;;;;;;;;;;;;;;;;;5041316;28;19924;-54
2023/03/12 04:01:30;;;;;;;;;;;;;;;;;;5048292;28;19921;-53
2023/03/12 04:03:56;;;;;;;;;;;;;;;;;;5048154;28;19928;-53
2023/03/12 04:06:22;;;;;;;;;;;;;;;;;;5041159;28;19921;-53
2023/03/12 04:08:48;;;;;;;;;;;1.50;99.90;;;;;;5048780;28;19920;-54
2023/03/12 04:11:13;;;;;;;;;;;;;;;;;;5049575;28;19921;-54
2023/03/12 04:13:39;;;;;;;;;;;;;;;;;;5042194;28;19924;-53
2023/03/12 04:16:05;;;;;;;;;;;;;;;;;;5048927;28;19931;-55
2023/03/12 04:18:32;;;;;;;;;;;;;;;;;;5038553;28;19948;-54
2023/03/12 04:20:57;;;;;;;;;;;;;;;;;;5045539;28;19921;-54
2023/03/12 04:23:23;;;;;;;;;;;;;;;;;;5040771;28;20020;-55
2023/03/12 04:25:49;;;;;;;;;;;1.20;99.90;;;;;;5042658;28;20111;-53
2023/03/12 04:28:15;;;;;;;;;;;1.70;99.90;;;;;;5040064;28;20360;-54
2023/03/12 04:30:41;;;;;;;;;;;;;;;;;;5048447;28;19970;-53
2023/03/12 04:33:06;;;;;;;;;;;;;;;;;;5050196;28;19940;-54
2023/03/12 04:35:32;;;;;;;;;;;;;;;;;;5051767;28;19990;-53
2023/03/12 04:37:59;;;;;;;;;;;1.30;97.40;;;;;;5051215;28;19960;-54
2023/03/12 04:40:25;;;;;;;;;;;1.80;75.30;;;;;;5043479;28;19920;-55
2023/03/12 04:42:51;;;;;;;;;;;;;;;;;;5046048;28;19921;-55
2023/03/12 04:45:17;;;;;;;;;;;;;;;;;;5044356;28;19920;-51
2023/03/12 04:47:43;;;;;;;;;;;1.40;77.80;;;;;;5050321;28;19920;-54
2023/03/12 04:50:09;;;;;;;;;;;;;;;;;;5046456;28;19921;-55
2023/03/12 04:52:34;;;;;;;;;;;;;;;;;;5049314;28;19920;-52
2023/03/12 04:55:00;;;;;;;;;;;1.50;1.00;;;;;;5048628;28;19920;-55
2023/03/12 04:57:26;;;;;;;;;;;;;;;;;;5044426;28;19921;-52
2023/03/12 04:59:52;;;;;;;;;;;;;;;;;;5046262;28;19943;-54
2023/03/12 05:02:18;;;;;;;;;;;;;;;;;;5052464;28;20156;-52
2023/03/12 05:04:44;;;;;;;;;;;;;;;;;;5052371;28;19928;-55
2023/03/12 05:07:09;;;;;;;;;;;2.00;1.00;;;;;;5052845;28;19920;-54
2023/03/12 05:09:35;;;;;;;;;;;;;;;;;;5048181;28;19921;-54
2023/03/12 05:12:01;;;;;;;;;;;;;;;;;;5051574;28;20034;-55
2023/03/12 05:14:27;;;;;;;;;;;;;;;;;;5052435;28;19928;-54
2023/03/12 05:16:53;;;;;;;;;;;;;;;;;;5051876;28;19932;-54
2023/03/12 05:19:19;;;;;;;;;;;;;;;;;;5051213;28;20399;-55
2023/03/12 05:21:45;;;;;;;;;;;;;;;;;;5051845;28;19921;-53
2023/03/12 05:24:11;;;;;;;;;;;;;;;;;;5051355;28;19982;-54
2023/03/12 05:26:37;;;;;;;;;;;;;;;;;;5051727;28;20309;-53
2023/03/12 05:29:03;;;;;;;;;;;2.20;1.00;;;;;;5050742;28;20397;-52
2023/03/12 05:31:31;;;;;;;;;;;;;;;;;;5050908;28;19924;-54
2023/03/12 05:33:58;;;;;;;;;;;1.10;1.00;;;;;;5051402;28;20283;-54
2023/03/12 05:36:24;;;;;;;;;;;;;;;;;;5043561;28;20399;-52
2023/03/12 05:38:49;;;;;;;;;;;1.50;1.00;;;;;;5047494;28;19959;-52
2023/03/12 05:41:22;;;;;;;;;;;1.70;1.00;;;;;;5051189;28;19921;-54
2023/03/12 05:43:48;;;;;;;;;;;;;;;;;;5049832;28;19927;-55
2023/03/12 05:46:13;;;;;;;;;;;1.50;1.00;;;;;;5050260;28;20003;-52
2023/03/12 05:48:39;;;;;;;;;;;;;;;;;;5050878;28;19990;-55
2023/03/12 05:51:05;;;;;;;;;;;;;;;;;;5050641;28;19925;-53
2023/03/12 05:53:31;;;;;;;;;;;;;;;;;;5050355;28;20406;-52
2023/03/12 05:55:57;;;;;;;;;;;;;;;;;;5047937;28;19925;-51
2023/03/12 05:58:22;;;;;;;;;;;2.50;1.00;;;;;;5032713;28;19928;-51
2023/03/12 06:00:48;;;;;;;;;;;;;;;;;;5045673;28;19929;-52
2023/03/12 06:03:14;;;;;;;;;;;;;;;;;;5046771;28;20015;-52
2023/03/12 06:05:40;;;;;;;;;;;;;;;;;;5045262;28;19960;-52
2023/03/12 06:08:06;;;;;;;;;;;;;;;;;;5041825;28;19975;-54
2023/03/12 06:10:32;;;;;;;;;;;;;;;;;;5047962;28;19999;-53
2023/03/12 06:12:58;;;;;;;;;;;;;;;;;;5047325;28;20000;-51
2023/03/12 06:15:24;;;;;;;;;;;;;;;;;;5048017;28;19928;-51
2023/03/12 06:17:49;;;;;;;;;;;1.90;1.00;;;;;;5043813;28;19932;-51
2023/03/12 06:20:15;;;;;;;;;;;;;;;;;;5037419;28;19921;-54
2023/03/12 06:22:41;;;;;;;;;;;;;;;;;;5045127;28;19944;-55
2023/03/12 06:25:07;;;;;;;;;;;;;;;;;;5040060;28;20390;-52
2023/03/12 06:27:33;;;;;;;;;;;;;;;;;;5044681;28;20359;-53
2023/03/12 06:29:59;;;;;;;;;;;;;;;;;;5050314;28;20019;-51
2023/03/12 06:32:25;;;;;;;;;;;;;;;;;;5051096;28;19921;-55
2023/03/12 06:34:51;;;;;;;;;;;;;;;;;;5050683;28;19928;-51
2023/03/12 06:37:16;;;;;;;;;;;2.30;1.00;;;;;;5049412;28;19932;-52
2023/03/12 06:39:42;;;;;;;;;;;;;;;;;;5049037;28;20310;-51
2023/03/12 06:42:08;;;;;;;;;;;;;;;;;;5050114;28;19920;-53
2023/03/12 06:44:34;;;;;;;;;;;;;;;;;;5051296;28;20046;-54
2023/03/12 06:47:00;;;;;;;;;;;;;;;;;;5065817;28;20001;-54
2023/03/12 06:49:30;;;;;;;;;;;2.00;1.00;;;;;;5043730;28;20059;-55
2023/03/12 06:51:56;;;;;;;;;;;;;;;;;;5048825;28;20007;-54
2023/03/12 06:54:22;;;;;;;;;;;;;;;;;;5047025;28;20338;-54
2023/03/12 06:56:48;;;;;;;;;;;;;;;;;;5042034;28;20017;-53
2023/03/12 06:59:14;;;;;;;;;;;1.50;1.00;;;;;;5044799;28;20012;-54
2023/03/12 07:01:39;;;;;;;;;;;1.50;1.00;;;;;;5042376;28;19960;-50
2023/03/12 07:04:05;;;;;;;;;;;;;;;;;;5050709;28;19924;-53
2023/03/12 07:06:31;;;;;;;;;;;;;;;;;;5042883;28;20417;-54
2023/03/12 07:08:57;;;;;;;;;;;;;;;;;;5035995;28;19967;-54
2023/03/12 07:11:23;;;;;;;;;;;1.40;1.00;;;;;;5050134;28;19966;-55
2023/03/12 07:13:49;;;;;;;;;;;;;;;;;;5049670;28;19920;-53
2023/03/12 07:16:14;;;;;;;;;;;1.70;1.00;;;;;;5050170;28;19928;-55
2023/03/12 07:18:40;;;;;;;;;;;;;;;;;;5049727;28;19928;-55
2023/03/12 07:21:06;;;;;;;;;;;;;;;;;;5048925;28;20658;-53
2023/03/12 07:23:32;;;;;;;;;;;2.20;23.60;;;;;;5050310;28;19920;-55
2023/03/12 07:25:58;;;;;;;;;;;;;;;;;;5048881;28;19966;-55
2023/03/12 07:28:23;;;;;;;;;;;;;;;;;;5046582;28;20310;-53
2023/03/12 07:30:49;;;;;;;;;;;;;;;;;;5046848;28;20408;-56
2023/03/12 07:33:15;;;;;;;;;;;;;;;;;;5041589;28;19927;-56
2023/03/12 07:35:41;;;;;;;;;;;;;;;;;;5033845;28;20020;-56
2023/03/12 07:38:07;;;;;;;;;;;;;;;;;;5045894;28;19925;-53
2023/03/12 07:40:33;;;;;;;;;;;2.50;99.90;;;;;;5050232;28;20243;-56
2023/03/12 07:42:59;;;;;;;;;;;2.50;99.90;;;;;;5047554;28;20127;-53
2023/03/12 07:45:24;;;;;;;;;;;2.30;99.90;;;;;;5049417;28;19921;-52
2023/03/12 07:47:50;;;;;;;;;;;;;;;;;;5041554;28;19928;-55
2023/03/12 07:50:16;;;;;;;;;;;;;;;;;;5047588;28;19975;-56
2023/03/12 07:52:42;;;;;;;;;;;;;;;;;;5044746;28;19924;-54
2023/03/12 07:55:08;;;;;;;;;;;;;;;;;;5038313;28;19951;-55
2023/03/12 07:57:33;;;;;;;;;;;2.50;99.90;;;;;;5045448;28;20287;-53
2023/03/12 07:59:59;;;;;;;;;;;2.60;99.90;;;;;;5045424;28;19929;-53
2023/03/12 08:02:25;;;;;;;;;;;;;;;;;;5048486;28;19966;-56
2023/03/12 08:04:51;;;;;;;;;;;;;;;;;;5047170;28;20313;-56
2023/03/12 08:07:17;;;;;;;;;;;;;;;;;;5048277;28;20352;-56
2023/03/12 08:09:42;;;;;;;;;;;2.60;99.90;;;;;;5040430;28;19925;-56
2023/03/12 08:12:08;;;;;;;;;;;;;;;;;;5047841;28;19977;-56
2023/03/12 08:14:34;;;;;;;;;;;2.20;99.90;;;;;;5044796;28;19950;-56
2023/03/12 08:17:00;;;;;;;;;;;;;;;;;;5044861;28;19925;-56
2023/03/12 08:19:26;;;;;;;;;;;;;;;;;;5044451;28;19936;-56
2023/03/12 08:21:52;;;;;;;;;;;;;;;;;;5045053;28;19921;-57
2023/03/12 08:24:18;;;;;;;;;;;;;;;;;;5049100;28;19928;-58
2023/03/12 08:26:44;;;;;;;;;;;;;;;;;;5046371;28;19920;-58
2023/03/12 08:29:09;;;;;;;;;;;;;;;;;;5044541;28;19928;-59
2023/03/12 08:31:35;;;;;;;;;;;;;;;;;;5044906;28;19920;-59
2023/03/12 08:34:01;;;;;;;;;;;2.20;99.90;;;;;;5048020;28;20007;-60
2023/03/12 08:36:27;;;;;;;;;;;;;;;;;;5049453;28;20027;-60
2023/03/12 08:38:53;;;;;;;;;;;;;;;;;;5048857;28;19975;-60
2023/03/12 08:41:18;;;;;;;;;;;2.60;99.90;;;;;;5049234;28;19925;-60
2023/03/12 08:43:44;;;;;;;;;;;2.40;99.90;;;;;;5047556;28;20408;-59
2023/03/12 08:46:10;;;;;;;;;;;;;;;;;;5049335;28;19932;-59
2023/03/12 08:48:36;;;;;;;;;;;;;;;;;;5064631;28;20011;-59
2023/03/12 08:51:03;;;;;;;;;;;;;;;;;;5049529;28;20382;-59
2023/03/12 08:53:29;;;;;;;;;;;2.70;99.90;;;;;;5049304;28;19921;-60
2023/03/12 08:55:55;;;;;;;;;;;;;;;;;;5048861;28;20386;-60
2023/03/12 08:58:21;;;;;;;;;;;2.60;99.90;;;;;;5048892;28;19928;-61
2023/03/12 09:00:47;;;;;;;;;;;;;;;;;;5062661;28;19925;-61
2023/03/12 09:03:13;;;;;;;;;;;;;;;;;;5049497;28;19999;-61
2023/03/12 09:05:39;;;;;;;;;;;;;;;;;;5056877;28;20000;-61
2023/03/12 09:08:05;;;;;;;;;;;2.30;99.90;;;;;;5047885;28;20011;-61
2023/03/12 09:10:31;;;;;;;;;;;;;;;;;;5049504;28;20019;-60
2023/03/12 09:12:57;;;;;;;;;;;;;;;;;;5045727;28;19929;-61
2023/03/12 09:15:23;;;;;;;;;;;;;;;;;;5044312;28;19927;-61
2023/03/12 09:17:49;;;;;;;;;;;;;;;;;;5050427;28;19938;-61
2023/03/12 09:20:15;;;;;;;;;;;;;;;;;;5052589;28;19921;-62
2023/03/12 09:22:41;;;;;;;;;;;2.50;99.90;;;;;;5052115;28;20356;-62
2023/03/12 09:25:07;;;;;;;;;;;;;;;;;;5047419;28;20389;-62
2023/03/12 09:27:40;;;;;;;;;;;2.60;99.90;;;;;;5052869;28;19921;-62
2023/03/12 09:30:06;;;;;;;;;;;;;;;;;;5044726;28;19921;-61
2023/03/12 09:32:32;;;;;;;;;;;;;;;;;;5047061;28;19928;-62
2023/03/12 09:34:58;;;;;;;;;;;;;;;;;;5042666;28;19925;-62
2023/03/12 09:37:24;;;;;;;;;;;;;;;;;;5041083;28;20099;-62
2023/03/12 09:39:50;;;;;;;;;;;2.80;99.90;;;;;;5047183;28;20003;-61
2023/03/12 09:42:16;;;;;;;;;;;;;;;;;;5042517;28;19921;-62
2023/03/12 09:44:42;;;;;;;;;;;;;;;;;;5045259;28;19920;-61
2023/03/12 09:47:08;;;;;;;;;;;;;;;;;;5052022;28;19921;-62
2023/03/12 09:49:34;;;;;;;;;;;;;;;;;;5051320;28;19960;-61
2023/03/12 09:52:01;;;;;;;;;;;3.40;1.00;;;;;;5050741;28;19932;-61
2023/03/12 09:54:27;;;;;;;;;;;;;;;;;;5049341;28;19935;-60
2023/03/12 09:56:53;;;;;;;;;;;;;;;;;;5051116;28;19959;-62
2023/03/12 09:59:19;;;;;;;;;;;2.30;1.00;;;;;;5051494;28;19921;-61
2023/03/12 10:01:45;;;;;;;;;;;;;;;;;;5050707;28;20282;-60
2023/03/12 10:04:19;;;;;;;;;;;2.90;1.00;;;;;;5050111;28;20462;-58
2023/03/12 10:06:55;;;;;;;;;;;2.30;1.00;;;;;;5050969;28;20058;-58
2023/03/12 10:09:28;;;;;;;;;;;2.60;11.50;;;;;;5051104;28;19921;-57
2023/03/12 10:11:55;;;;;;;;;;;;;;;;;;5044422;28;20011;-57
2023/03/12 10:14:21;;;;;;;;;;;2.80;46.80;;;;;;5051636;28;19974;-56
2023/03/12 10:17:05;;;;;;;;;;;2.90;48.20;;;;;;5051242;28;20016;-57
2023/03/12 10:19:31;;;;;;;;;;;;;;;;;;5048085;28;19925;-56
2023/03/12 10:22:03;;;;;;;;;;;3.50;85.90;;;;;;5051170;28;21950;-57
2023/03/12 10:24:30;;;;;;;;;;;;;;;;;;5044534;28;19920;-54
2023/03/12 10:26:57;;;;;;;;;;;3.30;82.10;;;;;;5050476;28;19974;-56
2023/03/12 10:29:23;;;;;;;;;;;;;;;;;;5049556;28;20294;-56
2023/03/12 10:31:49;;;;;;;;;;;;;;;;;;5049224;28;19927;-56
2023/03/12 10:34:17;;;;;;;;;;;3.40;86.00;;;;;;5049467;28;19925;-57
2023/03/12 10:36:43;;;;;;;;;;;;;;;;;;5049974;28;19924;-56
2023/03/12 10:39:14;;;;;;;;;;;3.40;99.90;;;;;;5050487;28;19927;-57
2023/03/12 10:41:39;;;;;;;;;;;;;;;;;;5047523;28;20432;-55
2023/03/12 10:44:05;;;;;;;;;;;;;;;;;;5047985;28;19920;-56
2023/03/12 10:46:31;;;;;;;;;;;;;;;;;;5065234;28;19920;-56
2023/03/12 10:49:16;;;;;;;;;;;3.50;99.90;;;;;;5048180;28;20488;-53
2023/03/12 10:51:52;;;;;;;;;;;3.70;99.90;;;;;;5048401;28;19985;-57
2023/03/12 10:54:18;;;;;;;;;;;;;;;;;;5050261;28;19920;-57
2023/03/12 10:56:44;;;;;;;;;;;;;;;;;;5049568;28;19932;-57
2023/03/12 10:59:10;;;;;;;;;;;;;;;;;;5050298;28;19975;-58
2023/03/12 11:01:36;;;;;;;;;;;;;;;;;;5050131;28;19963;-58
2023/03/12 11:04:02;;;;;;;;;;;;;;;;;;5049643;28;19921;-58
2023/03/12 11:06:28;;;;;;;;;;;4.20;99.90;;;;;;5050128;28;19927;-58
2023/03/12 11:09:02;;;;;;;;;;;4.80;98.20;;;;;;5049450;28;19920;-59
2023/03/12 11:11:28;;;;;;;;;;;;;;;;;;5045091;28;19983;-60
2023/03/12 11:13:54;;;;;;;;;;;;;;;;;;5041825;28;20382;-61
2023/03/12 11:16:20;;;;;;;;;;;;;;;;;;5040361;28;20465;-60
2023/03/12 11:19:02;;;;;;;;;;;4.80;99.90;;;;;;5049138;28;19927;-62
2023/03/12 11:21:28;;;;;;;;;;;;;;;;;;5050123;28;19925;-62
2023/03/12 11:23:54;;;;;;;;;;;;;;;;;;5047831;28;19920;-61
2023/03/12 11:26:21;;;;;;;;;;;;;;;;;;5043742;28;19967;-61
2023/03/12 11:28:46;;;;;;;;;;;;;;;;;;5048466;28;19921;-60
2023/03/12 11:31:12;;;;;;;;;;;;;;;;;;5049628;28;20397;-61
2023/03/12 11:33:38;;;;;;;;;;;;;;;;;;5048979;28;19921;-62
2023/03/12 11:36:04;;;;;;;;;;;;;;;;;;5042339;28;19955;-60
2023/03/12 11:38:30;;;;;;;;;;;;;;;;;;5043754;28;19925;-60
2023/03/12 11:41:03;;;;;;;;;;;6.70;99.90;;;;;;5046620;28;19970;-60
2023/03/12 11:43:29;;;;;;;;;;;;;;;;;;5049420;28;19925;-59
2023/03/12 11:45:55;;;;;;;;;;;;;;;;;;5047513;28;19921;-58
2023/03/12 11:48:27;;;;;;;;;;;6.70;99.90;;;;;;5048677;28;19928;-60
2023/03/12 11:50:54;;;;;;;;;;;;;;;;;;5039996;28;20428;-61
2023/03/12 11:53:20;;;;;;;;;;;;;;;;;;5032225;28;20175;-61
2023/03/12 11:55:46;;;;;;;;;;;;;;;;;;5032201;28;20031;-59
2023/03/12 11:58:12;;;;;;;;;;;;;;;;;;5036078;28;20358;-61
2023/03/12 12:00:38;;;;;;;;;;;;;;;;;;5037288;28;19924;-61
2023/03/12 12:03:07;;;;;;;;;;;7.00;99.90;;;;;;5029806;28;19932;-61
2023/03/12 12:05:32;;;;;;;;;;;;;;;;;;5037748;28;20387;-57
2023/03/12 12:08:01;;;;;;;;;;;7.20;99.90;;;;;;5037224;28;19933;-59
2023/03/12 12:10:27;;;;;;;;;;;;;;;;;;5033995;28;19995;-61
2023/03/12 12:12:53;;;;;;;;;;;;;;;;;;5042743;28;20039;-61
2023/03/12 12:15:31;;;;;;;;;;;7.80;99.90;;;;;;5049041;28;19921;-61
2023/03/12 12:17:57;;;;;;;;;;;;;;;;;;5043980;28;19928;-61
2023/03/12 12:20:51;;;;;;;;;;;8.30;99.90;;;;;;5042180;28;19924;-57
2023/03/12 12:23:17;;;;;;;;;;;8.40;99.90;;;;;;4995862;28;19976;-60
2023/03/12 12:26:01;;;;;;;;;;;8.50;99.90;;;;;;5045851;28;20393;-60
2023/03/12 12:28:26;;;;;;;;;;;;;;;;;;5033927;28;19920;-58
2023/03/12 12:30:52;;;;;;;;;;;;;;;;;;5048746;28;20007;-59
2023/03/12 12:33:18;;;;;;;;;;;;;;;;;;5035514;28;20549;-59
2023/03/12 12:35:44;;;;;;;;;;;;;;;;;;5048016;28;20008;-59
2023/03/12 12:38:29;;;;;;;;;;;8.90;1.00;;;;;;5045027;28;20127;-59
2023/03/12 12:40:55;;;;;;;;;;;;;;;;;;5046805;28;20374;-59
2023/03/12 12:43:21;;;;;;;;;;;;;;;;;;5047553;28;19924;-59
2023/03/12 12:45:47;;;;;;;;;;;9.70;99.90;;;;;;5063812;28;19927;-59
2023/03/12 12:48:13;;;;;;;;;;;;;;;;;;5035294;28;20000;-59
2023/03/12 12:50:39;;;;;;;;;;;;;;;;;;5045256;28;20345;-59
2023/03/12 12:53:05;;;;;;;;;;;;;;;;;;5048239;28;20455;-60
2023/03/12 12:55:31;;;;;;;;;;;;;;;;;;5042867;28;19920;-60
2023/03/12 12:57:57;;;;;;;;;;;;;;;;;;5050305;28;19932;-59
2023/03/12 13:00:37;;;;;;;;;;;11.40;1.00;;;;;;5050614;28;19921;-60
2023/03/12 13:03:03;;;;;;;;;;;11.60;1.00;;;;;;5042197;28;20460;-60
2023/03/12 13:05:34;;;;;;;;;;;11.60;1.00;;;;;;5044914;28;19921;-59
2023/03/12 13:08:00;;;;;;;;;;;;;;;;;;5045149;28;19925;-60
2023/03/12 13:10:26;;;;;;;;;;;;;;;;;;5052658;28;20294;-60
2023/03/12 13:12:53;;;;;;;;;;;10.80;1.00;;;;;;5049965;28;19921;-60
2023/03/12 13:15:28;;;;;;;;;;;10.30;1.00;;;;;;5050890;28;19929;-60
2023/03/12 13:17:54;;;;;;;;;;;10.10;1.00;;;;;;5049924;28;19927;-60
2023/03/12 13:20:20;;;;;;;;;;;10.20;1.00;;;;;;5050646;28;20016;-60
2023/03/12 13:22:58;;;;;;;;;;;9.90;1.00;;;;;;5049103;28;19927;-60
2023/03/12 13:25:27;;;;;;;;;;;9.40;1.00;;;;;;5052193;28;19920;-60
2023/03/12 13:27:59;;;;;;;;;;;10.30;1.00;;;;;;5043615;28;20409;-59
2023/03/12 13:30:34;;;;;;;;;;;10.00;1.00;;;;;;5048320;28;19920;-60
2023/03/12 13:33:02;;;;;;;;;;;;;;;;;;5042075;28;20085;-60
2023/03/12 13:35:28;;;;;;;;;;;;;;;;;;5039690;28;19931;-59
2023/03/12 13:37:54;;;;;;;;;;;;;;;;;;5046511;28;19921;-60
2023/03/12 13:40:20;;;;;;;;;;;;;;;;;;5045337;28;19927;-59
2023/03/12 13:42:46;;;;;;;;;;;;;;;;;;5051037;28;19921;-59
2023/03/12 13:45:12;;;;;;;;;;;;;;;;;;5049618;28;20393;-59
2023/03/12 13:47:38;;;;;;;;;;;;;;;;;;5045592;28;19983;-59
2023/03/12 13:50:05;;;;;;;;;;;11.40;1.00;;;;;;5047483;28;20366;-58
2023/03/12 13:52:31;;;;;;;;;;;;;;;;;;5049597;28;19921;-58
2023/03/12 13:54:57;;;;;;;;;;;;;;;;;;5048495;28;19921;-58
2023/03/12 13:57:25;;;;;;;;;;;10.70;1.00;;;;;;5045946;28;19931;-57
2023/03/12 13:59:51;;;;;;;;;;;;;;;;;;5036902;28;19974;-58
2023/03/12 14:02:31;;;;;;;;;;;11.20;1.00;;;;;;5040402;28;19920;-57
2023/03/12 14:05:09;;;;;;;;;;;11.20;1.00;;;;;;5044004;28;19920;-57
2023/03/12 14:07:58;;;;;;;;;;;11.30;1.00;;;;;;5046938;28;19983;-57
2023/03/12 14:10:24;;;;;;;;;;;;;;;;;;5043975;28;19927;-57
2023/03/12 14:12:50;;;;;;;;;;;;;;;;;;5041894;28;20063;-55
2023/03/12 14:15:17;;;;;;;;;;;;;;;;;;5045166;28;20020;-57
2023/03/12 14:17:42;;;;;;;;;;;;;;;;;;5043300;28;19928;-56
2023/03/12 14:20:08;;;;;;;;;;;;;;;;;;5048883;28;19921;-57
2023/03/12 14:22:36;;;;;;;;;;;11.80;1.00;;;;;;5042941;28;19921;-57
2023/03/12 14:25:03;;;;;;;;;;;;;;;;;;5045513;28;20332;-56
2023/03/12 14:27:30;;;;;;;;;;;11.60;1.00;;;;;;5045637;28;19928;-58
2023/03/12 14:29:57;;;;;;;;;;;11.60;1.00;;;;;;5050167;28;19920;-57
2023/03/12 14:32:23;;;;;;;;;;;;;;;;;;5046792;28;19921;-56
2023/03/12 14:34:53;;;;;;;;;;;12.60;1.00;;;;;;5037387;28;19925;-55
2023/03/12 14:37:21;;;;;;;;;;;12.40;1.00;;;;;;5043678;28;19925;-53
2023/03/12 14:40:06;;;;;;;;;;;12.90;99.90;;;;;;5048880;28;20306;-56
2023/03/12 14:42:31;;;;;;;;;;;;;;;;;;5050585;28;19921;-55
2023/03/12 14:44:57;;;;;;;;;;;12.20;99.90;;;;;;5046067;28;20413;-59
2023/03/12 14:47:22;;;;;;;;;;;12.00;99.90;;;;;;5044943;28;20378;-59
2023/03/12 14:49:48;;;;;;;;;;;;;;;;;;5047193;28;19921;-53
2023/03/12 14:52:14;;;;;;;;;;;;;;;;;;5046906;28;20437;-55
2023/03/12 14:54:51;;;;;;;;;;;11.60;99.90;;;;;;5050367;28;20393;-53
2023/03/12 14:57:17;;;;;;;;;;;;;;;;;;5034491;28;19925;-53
2023/03/12 14:59:43;;;;;;;;;;;;;;;;;;5046197;28;19928;-53
2023/03/12 15:02:16;;;;;;;;;;;10.80;1.00;;;;;;5045106;28;20410;-53
2023/03/12 15:04:42;;;;;;;;;;;;;;;;;;5048181;28;19931;-52
2023/03/12 15:07:14;;;;;;;;;;;12.10;99.90;;;;;;5045276;28;20325;-54
2023/03/12 15:09:40;;;;;;;;;;;;;;;;;;5044037;28;19925;-52
2023/03/12 15:12:06;;;;;;;;;;;;;;;;;;5045743;28;19970;-54
2023/03/12 15:14:32;;;;;;;;;;;;;;;;;;5046665;28;20039;-56
2023/03/12 15:16:58;;;;;;;;;;;;;;;;;;5044485;28;19932;-52
2023/03/12 15:19:34;;;;;;;;;;;11.90;99.90;;;;;;5047216;28;20019;-52
2023/03/12 15:22:00;;;;;;;;;;;;;;;;;;5047716;28;19925;-52
2023/03/12 15:24:27;;;;;;;;;;;12.00;99.90;;;;;;5049315;28;20003;-52
2023/03/12 15:26:53;;;;;;;;;;;;;;;;;;5047613;28;19928;-55
2023/03/12 15:29:25;;;;;;;;;;;;;;;;;;5036547;28;19921;-54
2023/03/12 15:31:51;;;;;;;;;;;;;;;;;;5033902;28;20227;-52
2023/03/12 15:34:31;;;;;;;;;;;10.90;99.90;;;;;;5042026;28;19964;-53
2023/03/12 15:36:57;;;;;;;;;;;;;;;;;;5044574;28;19931;-52
2023/03/12 15:39:25;;;;;;;;;;;;;;;;;;5044788;28;19921;-53
2023/03/12 15:41:50;;;;;;;;;;;10.40;99.90;;;;;;5039383;28;19963;-52
2023/03/12 15:44:20;;;;;;;;;;;10.80;99.90;;;;;;5045731;28;19971;-51
2023/03/12 15:46:46;;;;;;;;;;;;;;;;;;5043427;28;19920;-53
2023/03/12 15:49:12;;;;;;;;;;;;;;;;;;5040593;28;20396;-53
2023/03/12 15:51:39;;;;;;;;;;;;;;;;;;5045074;28;20931;-53
2023/03/12 15:54:05;;;;;;;;;;;;;;;;;;5041642;28;20382;-53
2023/03/12 15:56:31;;;;;;;;;;;;;;;;;;5048794;28;19932;-51